createdAt,value
2022-12-05T00:01:42.488Z,100470.53
2022-12-05T00:04:11.645Z,100443.97
2022-12-05T00:06:39.674Z,100502.31
2022-12-05T00:09:07.505Z,100495.28
2022-12-05T00:11:36.081Z,100495.28
2022-12-05T00:14:04.388Z,100453.97
2022-12-05T00:16:32.769Z,100495.28
2022-12-05T00:19:01.702Z,100490.00
2022-12-05T00:21:30.789Z,100459.78
2022-12-05T00:23:58.716Z,100484.63
2022-12-05T00:26:26.595Z,100456.34
2022-12-05T00:28:54.248Z,100441.63
2022-12-05T00:31:22.505Z,100481.25
2022-12-05T00:33:50.153Z,100482.94
2022-12-05T00:36:22.828Z,100482.00
2022-12-05T00:38:50.431Z,100477.66
2022-12-05T00:41:19.074Z,100442.47
2022-12-05T00:43:46.661Z,100482.00
2022-12-05T00:46:16.164Z,100431.97
2022-12-05T00:48:43.715Z,100475.00
2022-12-05T00:51:12.595Z,100465.41
2022-12-05T00:53:41.504Z,100428.50
2022-12-05T00:56:10.266Z,100473.16
2022-12-05T00:58:37.761Z,100476.66
2022-12-05T01:01:08.880Z,100473.16
2022-12-05T01:03:36.431Z,100471.44
2022-12-05T01:06:05.834Z,100469.66
2022-12-05T01:08:33.453Z,100465.28
2022-12-05T01:11:02.290Z,100470.50
2022-12-05T01:13:29.809Z,100471.44
2022-12-05T01:15:57.269Z,100466.16
2022-12-05T01:18:24.888Z,100468.78
2022-12-05T01:20:52.342Z,100468.78
2022-12-05T01:23:19.835Z,100432.59
2022-12-05T01:25:48.189Z,100475.78
2022-12-05T01:28:17.357Z,100473.16
2022-12-05T01:30:46.210Z,100473.16
2022-12-05T01:33:13.810Z,100478.44
2022-12-05T01:35:41.601Z,100482.88
2022-12-05T01:38:09.195Z,100461.13
2022-12-05T01:40:36.831Z,100467.88
2022-12-05T01:43:04.372Z,100445.72
2022-12-05T01:45:35.075Z,100463.44
2022-12-05T01:48:04.505Z,100467.88
2022-12-05T01:50:32.052Z,100473.16
2022-12-05T01:52:59.507Z,100472.25
2022-12-05T01:55:26.962Z,100421.34
2022-12-05T01:57:54.403Z,100472.25
2022-12-05T02:00:22.185Z,100459.03
2022-12-05T02:02:55.607Z,100445.53
2022-12-05T02:05:24.222Z,100464.38
2022-12-05T02:07:51.726Z,100467.88
2022-12-05T02:10:19.637Z,100458.16
2022-12-05T02:12:47.073Z,100461.69
2022-12-05T02:15:29.650Z,100459.03
2022-12-05T02:18:03.864Z,100475.72
2022-12-05T02:20:37.097Z,100390.56
2022-12-05T02:23:41.675Z,100413.88
2022-12-05T02:26:48.952Z,100469.59
2022-12-05T02:29:45.982Z,100475.00
2022-12-05T02:32:16.115Z,100479.28
2022-12-05T02:34:46.215Z,100474.13
2022-12-05T02:37:15.303Z,100473.28
2022-12-05T02:39:44.953Z,100399.41
2022-12-05T02:42:14.256Z,100390.00
2022-12-05T02:44:43.936Z,100378.50
2022-12-05T02:47:12.867Z,100477.66
2022-12-05T02:49:40.313Z,100466.22
2022-12-05T02:52:09.290Z,100465.47
2022-12-05T02:54:38.311Z,100454.38
2022-12-05T02:57:05.933Z,100468.00
2022-12-05T02:59:33.415Z,100460.13
2022-12-05T03:02:00.857Z,100472.44
2022-12-05T03:04:29.710Z,100469.78
2022-12-05T03:06:59.741Z,100442.59
2022-12-05T03:09:29.536Z,100467.16
2022-12-05T03:12:06.908Z,100468.84
2022-12-05T03:14:35.794Z,100476.84
2022-12-05T03:17:04.261Z,100421.84
2022-12-05T03:19:35.080Z,100466.28
2022-12-05T03:22:03.292Z,100468.13
2022-12-05T03:24:31.058Z,100469.91
2022-12-05T03:27:02.748Z,100474.28
2022-12-05T03:29:32.393Z,100468.13
2022-12-05T03:32:06.656Z,100469.97
2022-12-05T03:34:43.820Z,100469.84
2022-12-05T03:37:13.620Z,100460.19
2022-12-05T03:39:41.056Z,100472.50
2022-12-05T03:42:10.903Z,100397.81
2022-12-05T03:44:41.061Z,100393.47
2022-12-05T03:47:10.523Z,100469.13
2022-12-05T03:49:42.239Z,100464.81
2022-12-05T03:52:11.382Z,100455.97
2022-12-05T03:54:39.725Z,100457.69
2022-12-05T03:57:09.528Z,100462.06
2022-12-05T03:59:38.150Z,100455.91
2022-12-05T04:02:06.961Z,100461.19
2022-12-05T04:04:35.620Z,100462.97
2022-12-05T04:07:05.412Z,100463.84
2022-12-05T04:09:34.622Z,100462.97
2022-12-05T04:12:03.139Z,100407.31
2022-12-05T04:14:33.899Z,100388.31
2022-12-05T04:17:04.215Z,100468.19
2022-12-05T04:19:54.872Z,100449.28
2022-12-05T04:22:23.351Z,100462.97
2022-12-05T04:25:08.636Z,100371.78
2022-12-05T04:27:39.919Z,100457.75
2022-12-05T04:30:08.869Z,100464.75
2022-12-05T04:32:39.307Z,100457.69
2022-12-05T04:35:10.415Z,100467.34
2022-12-05T04:37:40.564Z,100462.91
2022-12-05T04:40:09.036Z,100454.25
2022-12-05T04:42:36.666Z,100465.66
2022-12-05T04:45:05.936Z,100462.97
2022-12-05T04:47:36.446Z,100469.97
2022-12-05T04:50:03.943Z,100475.25
2022-12-05T04:52:32.465Z,100378.88
2022-12-05T04:55:03.351Z,100397.84
2022-12-05T04:57:32.898Z,100470.88
2022-12-05T05:02:20.762Z,100466.53
2022-12-05T05:04:50.914Z,100462.97
2022-12-05T05:07:18.648Z,100459.41
2022-12-05T05:09:46.168Z,100386.47
2022-12-05T05:12:18.961Z,100460.25
2022-12-05T05:14:46.560Z,100469.03
2022-12-05T05:17:13.998Z,100467.28
2022-12-05T05:19:41.435Z,100467.22
2022-12-05T05:22:08.864Z,100471.56
2022-12-05T05:24:36.327Z,100465.28
2022-12-05T05:27:03.743Z,100458.22
2022-12-05T05:29:32.489Z,100465.09
2022-12-05T05:31:59.902Z,100470.31
2022-12-05T05:34:28.614Z,100470.19
2022-12-05T05:36:56.061Z,100468.41
2022-12-05T05:39:23.794Z,100473.63
2022-12-05T05:41:51.234Z,100471.00
2022-12-05T05:44:18.688Z,100473.56
2022-12-05T05:46:47.553Z,100472.63
2022-12-05T05:49:15.051Z,100475.22
2022-12-05T05:51:42.464Z,100473.44
2022-12-05T05:54:10.011Z,100476.09
2022-12-05T05:56:37.442Z,100476.81
2022-12-05T05:59:04.872Z,100488.09
2022-12-05T06:01:32.342Z,100487.97
2022-12-05T06:04:01.268Z,100484.31
2022-12-05T06:06:28.803Z,100490.41
2022-12-05T06:08:56.849Z,100480.72
2022-12-05T06:11:26.562Z,100407.91
2022-12-05T06:13:54.339Z,100491.28
2022-12-05T06:16:21.904Z,100488.66
2022-12-05T06:18:49.759Z,100486.00
2022-12-05T06:21:18.541Z,100486.75
2022-12-05T06:23:46.045Z,100490.22
2022-12-05T06:26:14.350Z,100499.03
2022-12-05T06:28:42.164Z,100494.63
2022-12-05T06:31:10.033Z,100499.84
2022-12-05T06:33:37.626Z,100504.25
2022-12-05T06:36:06.251Z,100390.72
2022-12-05T06:38:39.018Z,100499.84
2022-12-05T06:41:09.765Z,100505.94
2022-12-05T06:43:37.220Z,100511.16
2022-12-05T06:46:05.490Z,100507.69
2022-12-05T06:48:32.998Z,100474.06
2022-12-05T06:51:00.473Z,100512.84
2022-12-05T06:53:27.925Z,100508.41
2022-12-05T06:55:59.943Z,100512.72
2022-12-05T06:58:27.698Z,100481.09
2022-12-05T07:01:12.997Z,100518.59
2022-12-05T07:03:40.543Z,100515.03
2022-12-05T07:06:08.521Z,100515.81
2022-12-05T07:08:36.038Z,100513.16
2022-12-05T07:11:04.922Z,100525.41
2022-12-05T07:13:32.727Z,100524.41
2022-12-05T07:16:00.409Z,100435.06
2022-12-05T07:18:27.989Z,100526.13
2022-12-05T07:21:14.544Z,100436.72
2022-12-05T07:23:42.460Z,100526.00
2022-12-05T07:26:12.632Z,100528.56
2022-12-05T07:28:39.902Z,100534.78
2022-12-05T07:31:08.169Z,100532.06
2022-12-05T07:33:35.682Z,100532.81
2022-12-05T07:36:03.582Z,100531.81
2022-12-05T07:38:31.105Z,100528.16
2022-12-05T07:40:58.956Z,100528.97
2022-12-05T07:43:27.703Z,100531.47
2022-12-05T07:45:55.216Z,100524.59
2022-12-05T07:48:22.745Z,100532.25
2022-12-05T07:50:50.216Z,100531.28
2022-12-05T07:53:17.675Z,100535.56
2022-12-05T07:55:45.124Z,100531.16
2022-12-05T07:58:12.550Z,100539.06
2022-12-05T08:00:41.328Z,100536.28
2022-12-05T08:03:08.760Z,100541.56
2022-12-05T08:05:37.464Z,100545.91
2022-12-05T08:08:05.192Z,100544.19
2022-12-05T08:10:32.732Z,100527.84
2022-12-05T08:13:00.232Z,100538.09
2022-12-05T08:15:27.663Z,100544.34
2022-12-05T08:17:56.528Z,100548.69
2022-12-05T08:20:24.000Z,100546.97
2022-12-05T08:22:52.743Z,100547.75
2022-12-05T08:25:20.199Z,100545.09
2022-12-05T08:27:47.640Z,100547.81
2022-12-05T08:30:15.197Z,100549.56
2022-12-05T08:32:42.678Z,100553.91
2022-12-05T08:35:11.527Z,100550.25
2022-12-05T08:37:38.948Z,100559.06
2022-12-05T08:40:07.483Z,100552.78
2022-12-05T08:42:34.946Z,100554.50
2022-12-05T08:45:02.503Z,100550.00
2022-12-05T08:47:32.331Z,100491.81
2022-12-05T08:50:00.080Z,100559.72
2022-12-05T08:52:31.845Z,100562.25
2022-12-05T08:54:59.794Z,100566.59
2022-12-05T08:57:27.504Z,100556.03
2022-12-05T08:59:54.953Z,100567.41
2022-12-05T09:02:22.523Z,100570.88
2022-12-05T09:04:54.035Z,100563.81
2022-12-05T09:07:21.750Z,100546.59
2022-12-05T09:09:50.547Z,100562.81
2022-12-05T09:12:17.994Z,100563.63
2022-12-05T09:14:45.414Z,100552.38
2022-12-05T09:17:12.867Z,100567.91
2022-12-05T09:19:40.307Z,100563.47
2022-12-05T09:22:07.812Z,100567.84
2022-12-05T09:24:35.321Z,100553.91
2022-12-05T09:27:04.282Z,100573.94
2022-12-05T09:29:32.417Z,100565.06
2022-12-05T09:31:59.877Z,100566.94
2022-12-05T09:34:27.440Z,100573.00
2022-12-05T09:37:10.296Z,100566.78
2022-12-05T09:39:44.112Z,100566.78
2022-12-05T09:42:31.199Z,100516.94
2022-12-05T09:45:10.481Z,100564.84
2022-12-05T09:47:43.799Z,100570.94
2022-12-05T09:50:17.341Z,100577.09
2022-12-05T09:52:45.981Z,100528.97
2022-12-05T09:55:14.734Z,100514.63
2022-12-05T09:57:46.189Z,100579.88
2022-12-05T10:00:15.471Z,100485.09
2022-12-05T10:02:48.584Z,100515.09
2022-12-05T10:05:18.632Z,100564.78
2022-12-05T10:07:51.712Z,100552.75
2022-12-05T10:10:35.502Z,100562.00
2022-12-05T10:13:19.078Z,100528.56
2022-12-05T10:15:48.869Z,100521.84
2022-12-05T10:18:25.498Z,100497.59
2022-12-05T10:20:54.969Z,100544.53
2022-12-05T10:23:55.416Z,100561.66
2022-12-05T10:26:12.208Z,100541.91
2022-12-05T10:28:42.669Z,100554.50
2022-12-05T10:31:11.205Z,100540.91
2022-12-05T10:33:39.626Z,100558.94
2022-12-05T10:36:16.129Z,100517.78
2022-12-05T10:38:44.097Z,100517.16
2022-12-05T10:41:12.624Z,100465.78
2022-12-05T10:43:42.879Z,100563.38
2022-12-05T10:46:15.586Z,100564.22
2022-12-05T10:48:44.618Z,100551.94
2022-12-05T10:51:15.122Z,100546.78
2022-12-05T10:53:43.466Z,100554.56
2022-12-05T10:56:43.065Z,100544.88
2022-12-05T10:59:13.122Z,100493.41
2022-12-05T11:01:45.644Z,100540.75
2022-12-05T11:04:21.167Z,100498.09
2022-12-05T11:06:51.162Z,100553.78
2022-12-05T11:09:20.610Z,100552.94
2022-12-05T11:11:58.737Z,100517.69
2022-12-05T11:14:27.642Z,100471.94
2022-12-05T11:16:56.517Z,100536.47
2022-12-05T11:19:28.280Z,100477.38
2022-12-05T11:21:55.917Z,100546.78
2022-12-05T11:24:25.526Z,100538.03
2022-12-05T11:26:53.001Z,100544.88
2022-12-05T11:29:36.069Z,100538.50
2022-12-05T11:32:03.865Z,100536.72
2022-12-05T11:34:34.451Z,100538.28
2022-12-05T11:37:04.258Z,100499.56
2022-12-05T11:39:32.418Z,100541.59
2022-12-05T11:42:10.555Z,100489.78
2022-12-05T11:45:18.098Z,100534.13
2022-12-05T11:48:03.677Z,100453.66
2022-12-05T11:50:37.816Z,100511.94
2022-12-05T11:53:13.852Z,100529.63
2022-12-05T11:55:43.059Z,100515.59
2022-12-05T11:58:40.977Z,100525.16
2022-12-05T12:01:13.052Z,100515.53
2022-12-05T12:03:59.301Z,100527.47
2022-12-05T12:06:29.673Z,100463.81
2022-12-05T12:09:06.029Z,100532.19
2022-12-05T12:11:35.762Z,100528.91
2022-12-05T12:14:14.357Z,100526.47
2022-12-05T12:16:59.069Z,100524.84
2022-12-05T12:19:41.540Z,100522.03
2022-12-05T12:22:19.330Z,100528.22
2022-12-05T12:24:56.558Z,100523.88
2022-12-05T12:27:30.752Z,100526.53
2022-12-05T12:30:02.584Z,100432.84
2022-12-05T12:32:34.180Z,100516.97
2022-12-05T12:35:18.403Z,100512.47
2022-12-05T12:37:50.355Z,100430.22
2022-12-05T12:40:20.076Z,100516.97
2022-12-05T12:42:55.443Z,100516.97
2022-12-05T12:45:49.317Z,100518.75
2022-12-05T12:48:33.719Z,100464.50
2022-12-05T12:51:02.497Z,100521.31
2022-12-05T12:53:40.522Z,100522.19
2022-12-05T12:56:14.595Z,100519.75
2022-12-05T12:58:47.872Z,100460.38
2022-12-05T13:01:21.646Z,100497.59
2022-12-05T13:03:51.935Z,100526.59
2022-12-05T13:06:26.050Z,100525.78
2022-12-05T13:08:54.580Z,100525.69
2022-12-05T13:11:22.081Z,100523.97
2022-12-05T13:13:50.759Z,100520.41
2022-12-05T13:16:23.852Z,100514.16
2022-12-05T13:18:51.346Z,100524.75
2022-12-05T13:21:18.916Z,100514.25
2022-12-05T13:23:48.695Z,100519.47
2022-12-05T13:26:16.785Z,100516.91
2022-12-05T13:28:50.721Z,100426.03
2022-12-05T13:31:19.337Z,100524.97
2022-12-05T13:33:47.640Z,100522.41
2022-12-05T13:36:33.690Z,100466.81
2022-12-05T13:39:21.209Z,100463.38
2022-12-05T13:42:07.453Z,100528.72
2022-12-05T13:44:40.394Z,100526.00
2022-12-05T13:47:10.028Z,100533.06
2022-12-05T13:49:43.667Z,100544.50
2022-12-05T13:52:13.681Z,100548.00
2022-12-05T13:54:45.331Z,100558.72
2022-12-05T13:57:46.887Z,100554.50
2022-12-05T14:00:31.200Z,100543.06
2022-12-05T14:03:04.779Z,100550.09
2022-12-05T14:05:53.452Z,100545.56
2022-12-05T14:08:56.460Z,100542.00
2022-12-05T14:11:25.545Z,100531.50
2022-12-05T14:13:53.111Z,100502.56
2022-12-05T14:16:47.927Z,100542.00
2022-12-05T14:19:38.762Z,100540.47
2022-12-05T14:22:50.851Z,100537.63
2022-12-05T14:25:35.408Z,100536.78
2022-12-05T14:28:12.693Z,100536.78
2022-12-05T14:30:46.056Z,100534.91
2022-12-05T14:33:14.804Z,100537.56
2022-12-05T14:35:43.252Z,100458.56
2022-12-05T14:38:21.279Z,100548.06
2022-12-05T14:40:48.885Z,100539.28
2022-12-05T14:43:20.324Z,100537.56
2022-12-05T14:45:57.906Z,100540.13
2022-12-05T14:48:28.532Z,100540.19
2022-12-05T14:50:56.404Z,100544.66
2022-12-05T14:53:27.635Z,100513.66
2022-12-05T14:55:55.880Z,100538.91
2022-12-05T14:58:33.859Z,100460.94
2022-12-05T15:01:02.692Z,100542.50
2022-12-05T15:03:31.609Z,100472.97
2022-12-05T15:06:03.456Z,100539.91
2022-12-05T15:08:32.952Z,100552.22
2022-12-05T15:11:00.418Z,100550.50
2022-12-05T15:13:29.274Z,100556.63
2022-12-05T15:16:00.209Z,100564.56
2022-12-05T15:18:29.268Z,100561.09
2022-12-05T15:20:59.035Z,100482.00
2022-12-05T15:23:42.800Z,100560.22
2022-12-05T15:26:45.460Z,100506.09
2022-12-05T15:29:08.280Z,100509.69
2022-12-05T15:31:37.613Z,100559.28
2022-12-05T15:34:07.972Z,100446.31
2022-12-05T15:36:36.731Z,100556.69
2022-12-05T15:39:06.193Z,100568.16
2022-12-05T15:41:33.673Z,100568.16
2022-12-05T15:44:01.131Z,100562.78
2022-12-05T15:46:29.927Z,100562.78
2022-12-05T15:48:58.284Z,100567.16
2022-12-05T15:51:28.432Z,100486.47
2022-12-05T15:53:56.617Z,100571.69
2022-12-05T15:56:25.093Z,100575.22
2022-12-05T15:58:53.349Z,100521.09
2022-12-05T16:01:21.556Z,100573.38
2022-12-05T16:03:52.164Z,100514.47
2022-12-05T16:06:20.965Z,100583.09
2022-12-05T16:08:48.428Z,100516.09
2022-12-05T16:11:15.932Z,100580.44
2022-12-05T16:13:43.856Z,100576.97
2022-12-05T16:16:14.574Z,100576.97
2022-12-05T16:18:42.035Z,100573.66
2022-12-05T16:21:38.006Z,100581.38
2022-12-05T16:24:08.359Z,100549.84
2022-12-05T16:26:39.992Z,100551.59
2022-12-05T16:29:09.268Z,100582.47
2022-12-05T16:31:36.804Z,100586.09
2022-12-05T16:34:05.375Z,100591.38
2022-12-05T16:36:34.242Z,100545.03
2022-12-05T16:39:02.955Z,100586.22
2022-12-05T16:41:34.993Z,100548.41
2022-12-05T16:44:10.749Z,100586.34
2022-12-05T16:46:44.582Z,100528.03
2022-12-05T16:49:25.304Z,100592.66
2022-12-05T16:52:01.462Z,100573.88
2022-12-05T16:54:29.055Z,100591.97
2022-12-05T16:56:56.720Z,100592.91
2022-12-05T16:59:26.002Z,100586.75
2022-12-05T17:01:53.557Z,100579.75
2022-12-05T17:04:21.097Z,100583.34
2022-12-05T17:06:48.609Z,100581.59
2022-12-05T17:09:17.379Z,100585.19
2022-12-05T17:11:45.765Z,100576.44
2022-12-05T17:14:14.927Z,100531.06
2022-12-05T17:16:42.496Z,100580.03
2022-12-05T17:19:10.420Z,100582.75
2022-12-05T17:21:37.967Z,100574.25
2022-12-05T17:24:06.069Z,100584.66
2022-12-05T17:26:34.858Z,100587.28
2022-12-05T17:29:02.340Z,100584.72
2022-12-05T17:31:29.854Z,100586.53
2022-12-05T17:33:57.372Z,100590.00
2022-12-05T17:36:24.977Z,100504.78
2022-12-05T17:38:52.429Z,100584.78
2022-12-05T17:41:20.913Z,100591.88
2022-12-05T17:43:51.134Z,100584.84
2022-12-05T17:46:18.865Z,100589.41
2022-12-05T17:48:46.870Z,100593.81
2022-12-05T17:51:14.618Z,100592.09
2022-12-05T17:53:42.244Z,100595.66
2022-12-05T17:56:09.689Z,100593.94
2022-12-05T17:58:37.192Z,100598.34
2022-12-05T18:01:06.258Z,100600.16
2022-12-05T18:03:33.858Z,100539.34
2022-12-05T18:06:03.655Z,100606.28
2022-12-05T18:08:31.088Z,100603.72
2022-12-05T18:10:58.548Z,100614.34
2022-12-05T18:13:26.003Z,100619.63
2022-12-05T18:15:56.827Z,100517.34
2022-12-05T18:18:27.220Z,100617.06
2022-12-05T18:20:54.632Z,100620.63
2022-12-05T18:23:22.094Z,100619.78
2022-12-05T18:25:58.044Z,100541.63
2022-12-05T18:28:25.509Z,100624.28
2022-12-05T18:30:59.209Z,100627.88
2022-12-05T18:33:28.009Z,100621.84
2022-12-05T18:35:55.443Z,100627.88
2022-12-05T18:38:22.906Z,100624.34
2022-12-05T18:40:50.524Z,100629.63
2022-12-05T18:43:18.081Z,100630.56
2022-12-05T18:45:46.596Z,100631.41
2022-12-05T18:48:37.947Z,100627.06
2022-12-05T18:51:09.904Z,100631.53
2022-12-05T18:53:37.354Z,100626.31
2022-12-05T18:56:22.335Z,100579.16
2022-12-05T18:58:54.096Z,100636.13
2022-12-05T19:01:21.959Z,100636.13
2022-12-05T19:03:50.250Z,100627.31
2022-12-05T19:06:20.300Z,100634.31
2022-12-05T19:08:47.953Z,100628.25
2022-12-05T19:11:16.178Z,100536.16
2022-12-05T19:13:43.735Z,100629.16
2022-12-05T19:16:13.915Z,100636.19
2022-12-05T19:18:41.227Z,100638.94
2022-12-05T19:21:08.664Z,100639.84
2022-12-05T19:23:37.549Z,100562.38
2022-12-05T19:26:05.962Z,100646.00
2022-12-05T19:28:33.500Z,100654.88
2022-12-05T19:31:01.663Z,100646.06
2022-12-05T19:33:33.375Z,100591.00
2022-12-05T19:36:05.245Z,100643.41
2022-12-05T19:38:33.740Z,100646.06
2022-12-05T19:41:02.587Z,100648.78
2022-12-05T19:43:30.647Z,100650.47
2022-12-05T19:45:58.280Z,100597.22
2022-12-05T19:48:25.867Z,100641.72
2022-12-05T19:50:55.019Z,100648.72
2022-12-05T19:53:22.475Z,100638.25
2022-12-05T19:55:49.962Z,100632.22
2022-12-05T19:58:18.765Z,100639.19
2022-12-05T20:00:47.327Z,100638.31
2022-12-05T20:03:14.829Z,100646.25
2022-12-05T20:05:42.292Z,100642.75
2022-12-05T20:08:09.920Z,100639.25
2022-12-05T20:10:37.785Z,100635.75
2022-12-05T20:13:12.893Z,100633.97
2022-12-05T20:15:53.203Z,100639.25
2022-12-05T20:18:20.643Z,100637.44
2022-12-05T20:20:57.377Z,100646.25
2022-12-05T20:23:24.844Z,100649.91
2022-12-05T20:25:52.355Z,100644.59
2022-12-05T20:28:19.788Z,100653.38
2022-12-05T20:30:47.917Z,100648.22
2022-12-05T20:33:16.787Z,100643.13
2022-12-05T20:35:44.234Z,100640.47
2022-12-05T20:38:11.703Z,100647.38
2022-12-05T20:40:39.173Z,100642.94
2022-12-05T20:43:06.629Z,100643.88
2022-12-05T20:45:34.734Z,100638.56
2022-12-05T20:48:02.201Z,100644.72
2022-12-05T20:50:30.945Z,100639.44
2022-12-05T20:52:58.392Z,100635.19
2022-12-05T20:55:25.867Z,100640.47
2022-12-05T20:57:53.316Z,100648.28
2022-12-05T21:00:22.235Z,100641.28
2022-12-05T21:02:49.744Z,100639.50
2022-12-05T21:05:17.453Z,100633.34
2022-12-05T21:07:46.233Z,100638.63
2022-12-05T21:10:13.733Z,100629.84
2022-12-05T21:12:41.181Z,100631.66
2022-12-05T21:15:09.969Z,100633.34
2022-12-05T21:17:37.715Z,100629.84
2022-12-05T21:20:06.391Z,100636.94
2022-12-05T21:22:33.817Z,100632.53
2022-12-05T21:25:02.620Z,100624.63
2022-12-05T21:27:31.001Z,100545.50
2022-12-05T21:29:58.642Z,100624.63
2022-12-05T21:32:26.275Z,100636.13
2022-12-05T21:34:53.928Z,100628.19
2022-12-05T21:37:21.378Z,100629.06
2022-12-05T21:39:48.907Z,100623.84
2022-12-05T21:42:17.647Z,100612.59
2022-12-05T21:44:45.140Z,100626.41
2022-12-05T21:47:12.592Z,100626.41
2022-12-05T21:49:40.044Z,100620.25
2022-12-05T21:52:07.498Z,100622.03
2022-12-05T21:54:34.957Z,100621.19
2022-12-05T21:57:02.395Z,100621.19
2022-12-05T21:59:32.502Z,100627.31
2022-12-05T22:01:59.814Z,100626.59
2022-12-05T22:04:27.268Z,100623.97
2022-12-05T22:06:54.703Z,100624.75
2022-12-05T22:09:22.161Z,100619.44
2022-12-05T22:11:49.752Z,100625.59
2022-12-05T22:14:17.208Z,100628.19
2022-12-05T22:16:46.063Z,100628.19
2022-12-05T22:19:13.925Z,100627.38
2022-12-05T22:21:41.400Z,100626.47
2022-12-05T22:24:08.920Z,100632.66
2022-12-05T22:26:36.389Z,100637.94
2022-12-05T22:29:03.839Z,100631.75
2022-12-05T22:31:31.312Z,100629.19
2022-12-05T22:34:00.564Z,100627.38
2022-12-05T22:36:28.012Z,100631.81
2022-12-05T22:38:55.459Z,100619.44
2022-12-05T22:41:23.823Z,100539.53
2022-12-05T22:43:55.156Z,100616.81
2022-12-05T22:46:22.785Z,100612.41
2022-12-05T22:48:50.896Z,100560.09
2022-12-05T22:51:20.420Z,100615.97
2022-12-05T22:53:47.883Z,100620.44
2022-12-05T22:56:16.358Z,100543.78
2022-12-05T22:58:44.162Z,100608.09
2022-12-05T23:01:12.319Z,100617.75
2022-12-05T23:03:39.997Z,100609.00
2022-12-05T23:06:11.464Z,100604.59
2022-12-05T23:08:40.993Z,100605.53
2022-12-05T23:11:08.716Z,100603.00
2022-12-05T23:13:36.449Z,100599.38
2022-12-05T23:16:08.018Z,100600.31
2022-12-05T23:18:46.406Z,100598.56
2022-12-05T23:21:16.335Z,100603.00
2022-12-05T23:23:45.246Z,100600.44
2022-12-05T23:26:12.792Z,100603.97
2022-12-05T23:28:40.438Z,100597.84
2022-12-05T23:31:08.100Z,100603.97
2022-12-05T23:33:35.672Z,100600.44
2022-12-05T23:36:03.233Z,100588.94
2022-12-05T23:38:30.767Z,100598.63
2022-12-05T23:41:00.999Z,100595.16
2022-12-05T23:43:28.681Z,100595.97
2022-12-05T23:45:56.216Z,100598.63
2022-12-05T23:48:23.757Z,100604.78
2022-12-05T23:51:00.959Z,100598.63
2022-12-05T23:53:28.717Z,100530.78
2022-12-05T23:55:56.372Z,100602.25
2022-12-05T23:58:25.238Z,100590.81
